Time;durP1;ratioP1;P1;durP2;ratioP2;P2;SDS_P1;SDS_P2;PMS_P1;PMS_P2;Temp;Humidity;BMP_temperature;BMP_pressure;BME280_temperature;BME280_humidity;BME280_pressure;Samples;Min_cycle;Max_cycle;Signal;HPM_P1;HPM_P2
2022/01/13 00:01:44;;;;;;;49.58;22.38;;;3.40;99.90;;;;;;4990490;28;20551;-83
2022/01/13 00:04:15;;;;;;;47.90;24.10;;;3.50;99.90;;;;;;4972378;28;20292;-83
2022/01/13 00:06:46;;;;;;;48.15;25.05;;;3.50;99.90;;;;;;4981976;28;20766;-83
2022/01/13 00:09:14;;;;;;;69.97;24.35;;;3.50;99.90;;;;;;4972819;28;20312;-83
2022/01/13 00:11:40;;;;;;;53.05;26.73;;;3.70;99.90;;;;;;4970625;28;20185;-83
2022/01/13 00:19:18;;;;;;;52.03;22.77;;;3.80;99.90;;;;;;4994969;28;20471;-83
2022/01/13 00:22:00;;;;;;;65.18;25.60;;;;;;;;;;4970994;28;20196;-83
2022/01/13 00:24:25;;;;;;;60.28;25.48;;;3.50;99.90;;;;;;4977564;28;20181;-82
2022/01/13 00:26:53;;;;;;;59.77;25.57;;;3.30;99.90;;;;;;4988577;28;20250;-83
2022/01/13 00:29:25;;;;;;;62.05;29.63;;;3.20;99.90;;;;;;4986813;28;20280;-84
2022/01/13 00:31:51;;;;;;;62.70;27.80;;;3.30;99.90;;;;;;4980952;28;20192;-83
2022/01/13 00:34:17;;;;;;;61.50;28.20;;;3.30;99.90;;;;;;4987524;28;20666;-83
2022/01/13 00:36:43;;;;;;;66.07;26.52;;;;;;;;;;4990371;28;20262;-82
2022/01/13 00:39:11;;;;;;;63.53;27.60;;;3.10;99.90;;;;;;4993072;28;20189;-82
2022/01/13 00:41:37;;;;;;;59.55;29.33;;;3.20;99.90;;;;;;4989817;28;20864;-83
2022/01/13 00:44:05;;;;;;;61.92;26.67;;;3.20;99.90;;;;;;4986944;28;20225;-82
2022/01/13 00:46:41;;;;;;;55.88;28.58;;;3.30;99.90;;;;;;4970182;28;20189;-82
2022/01/13 00:49:08;;;;;;;59.22;26.38;;;3.40;99.90;;;;;;4991844;28;20574;-83
2022/01/13 00:51:34;;;;;;;62.60;22.65;;;3.40;99.90;;;;;;4987266;28;20193;-82
2022/01/13 00:54:04;;;;;;;54.23;25.67;;;2.80;99.90;;;;;;4989212;28;20207;-82
2022/01/13 00:56:32;;;;;;;70.70;27.23;;;3.40;99.90;;;;;;4976844;28;20181;-82
2022/01/13 00:58:59;;;;;;;70.03;26.90;;;3.40;99.90;;;;;;4996913;28;20451;-82
2022/01/13 01:01:24;;;;;;;63.97;27.77;;;5.40;99.90;;;;;;4987056;28;20287;-83
2022/01/13 01:03:50;;;;;;;71.03;27.37;;;;;;;;;;4986911;28;20228;-82
2022/01/13 01:06:16;;;;;;;61.47;25.58;;;3.20;99.90;;;;;;4969267;28;20559;-82
2022/01/13 01:08:42;;;;;;;61.30;27.00;;;3.30;99.90;;;;;;4967860;28;20213;-81
2022/01/13 01:11:08;;;;;;;59.78;28.58;;;3.10;99.90;;;;;;4969320;28;20181;-82
2022/01/13 01:13:35;;;;;;;51.97;23.90;;;3.20;99.90;;;;;;4997088;28;20215;-82
2022/01/13 01:16:06;;;;;;;57.22;25.92;;;3.30;99.90;;;;;;4986772;28;20181;-82
2022/01/13 01:18:50;;;;;;;55.40;24.85;;;3.30;99.90;;;;;;4988907;28;20216;-83
2022/01/13 01:31:37;;;;;;;49.30;23.08;;;3.20;99.90;;;;;;4978935;28;20531;-82
2022/01/13 01:36:31;;;;;;;66.75;27.05;;;3.10;99.90;;;;;;4986421;28;20188;-82
2022/01/13 01:38:58;;;;;;;61.03;26.50;;;3.20;99.90;;;;;;4996498;28;20347;-82
2022/01/13 01:41:23;;;;;;;63.03;27.15;;;3.20;99.90;;;;;;4988965;28;20184;-82
2022/01/13 01:43:51;;;;;;;64.57;29.67;;;3.40;99.90;;;;;;4995947;28;20197;-83
2022/01/13 01:46:17;;;;;;;54.40;23.88;;;3.40;99.90;;;;;;4990445;28;20177;-83
2022/01/13 01:48:42;;;;;;;52.77;23.17;;;3.20;99.90;;;;;;4992334;28;20231;-82
2022/01/13 01:51:08;;;;;;;65.70;27.53;;;3.30;99.90;;;;;;4972597;28;20542;-82
2022/01/13 01:56:17;;;;;;;64.28;27.75;;;;;;;;;;5175027;23;20255;-82
2022/01/13 01:58:42;;;;;;;57.33;25.50;;;3.30;99.90;;;;;;4990448;28;20657;-83
2022/01/13 02:01:08;;;;;;;64.97;27.23;;;3.50;99.90;;;;;;5001537;28;20490;-82
2022/01/13 02:03:34;;;;;;;62.77;25.57;;;3.30;99.90;;;;;;4974000;28;20195;-83
2022/01/13 02:06:00;;;;;;;56.93;24.90;;;4.00;99.90;;;;;;4995683;28;20197;-83
2022/01/13 02:08:26;;;;;;;53.55;23.65;;;3.20;99.90;;;;;;4992085;28;20205;-83
2022/01/13 02:10:52;;;;;;;59.37;28.33;;;;;;;;;;4974668;28;20193;-82
2022/01/13 02:13:22;;;;;;;61.80;27.00;;;3.30;99.90;;;;;;4974096;28;20284;-83
2022/01/13 02:16:17;;;;;;;57.20;26.67;;;3.10;99.90;;;;;;4971323;28;20432;-83
2022/01/13 02:18:37;;;;;;;60.15;25.00;;;3.50;99.90;;;;;;4984545;28;20223;-83
2022/01/13 02:21:04;;;;;;;64.82;26.58;;;3.30;99.90;;;;;;4971041;28;20200;-83
2022/01/13 02:23:38;;;;;;;57.17;28.02;;;3.20;99.90;;;;;;4990352;28;20220;-82
2022/01/13 02:26:07;;;;;;;58.85;25.48;;;3.30;99.90;;;;;;5047998;23;20560;-83
2022/01/13 02:28:34;;;;;;;55.75;22.10;;;;;;;;;;5001636;28;20299;-83
2022/01/13 02:31:01;;;;;;;59.95;27.50;;;3.20;99.90;;;;;;5018005;28;20235;-84
2022/01/13 02:33:26;;;;;;;64.93;27.65;;;3.20;99.90;;;;;;4990913;28;20193;-83
2022/01/13 02:35:53;;;;;;;62.33;29.30;;;3.10;99.90;;;;;;4996604;28;20265;-83
2022/01/13 02:38:19;;;;;;;73.78;29.70;;;3.30;99.90;;;;;;4991446;28;20652;-84
2022/01/13 02:40:52;;;;;;;58.33;25.58;;;3.60;99.90;;;;;;5041003;23;20226;-95
2022/01/13 02:43:22;;;;;;;60.08;29.23;;;3.60;99.90;;;;;;4972331;28;20174;-96
2022/01/13 02:46:32;;;;;;;66.88;26.60;;;;;;;;;;4963655;28;20256;-95
2022/01/13 02:48:37;;;;;;;67.90;28.30;;;;;;;;;;4970489;28;20317;-95
2022/01/13 02:51:04;;;;;;;71.18;27.00;;;;;;;;;;4986552;28;20202;-95
2022/01/13 02:53:30;;;;;;;64.40;28.75;;;;;;;;;;4974858;28;20414;-94
2022/01/13 02:56:01;;;;;;;65.35;31.50;;;;;;;;;;4972041;28;20291;-95
2022/01/13 02:58:28;;;;;;;71.03;30.17;;;;;;;;;;4971640;28;20179;-95
2022/01/13 03:00:54;;;;;;;67.22;30.30;;;;;;;;;;4973540;28;20204;-95
2022/01/13 03:03:20;;;;;;;80.07;32.00;;;;;;;;;;4971951;28;20178;-95
2022/01/13 03:05:49;;;;;;;66.28;30.70;;;3.20;99.90;;;;;;4959452;28;20204;-94
2022/01/13 03:08:15;;;;;;;69.53;31.80;;;;;;;;;;4974036;28;20205;-94
2022/01/13 03:10:43;;;;;;;83.80;33.30;;;3.10;99.90;;;;;;4969240;28;20257;-95
2022/01/13 03:13:10;;;;;;;61.15;26.45;;;;;;;;;;4969938;28;20190;-95
2022/01/13 03:15:36;;;;;;;78.30;31.55;;;;;;;;;;4969438;28;20579;-95
2022/01/13 03:18:02;;;;;;;76.93;34.38;;;;;;;;;;4966893;28;20194;-96
2022/01/13 03:20:28;;;;;;;84.80;34.47;;;;;;;;;;4965023;28;20186;-95
2022/01/13 03:22:54;;;;;;;69.40;30.45;;;;;;;;;;4970973;28;20189;-94
2022/01/13 03:25:22;;;;;;;67.30;30.92;;;;;;;;;;4952969;29;20513;-94
2022/01/13 03:28:04;;;;;;;65.13;28.90;;;3.10;99.90;;;;;;4972690;28;20186;-94
2022/01/13 03:30:30;;;;;;;85.60;34.10;;;;;;;;;;4959097;28;20220;-94
2022/01/13 03:32:56;;;;;;;63.25;28.52;;;;;;;;;;4965706;28;20181;-95
2022/01/13 03:35:22;;;;;;;71.85;32.97;;;3.40;99.90;;;;;;4961571;28;20298;-94
2022/01/13 03:37:48;;;;;;;68.80;33.87;;;;;;;;;;4976262;28;20196;-96
2022/01/13 03:40:14;;;;;;;51.97;25.27;;;;;;;;;;4965768;28;20186;-92
2022/01/13 03:42:45;;;;;;;65.95;30.23;;;3.30;99.90;;;;;;4952966;29;20202;-94
2022/01/13 03:45:11;;;;;;;51.35;23.83;;;;;;;;;;4965302;28;20193;-95
2022/01/13 03:47:37;;;;;;;65.63;28.67;;;;;;;;;;4966193;28;20186;-96
2022/01/13 03:50:03;;;;;;;71.40;32.03;;;;;;;;;;4958896;28;20669;-94
2022/01/13 03:52:29;;;;;;;76.22;32.80;;;3.20;99.90;;;;;;4955987;28;20474;-96
2022/01/13 03:55:20;;;;;;;74.13;32.20;;;3.20;99.90;;;;;;4968787;28;20182;-95
2022/01/13 03:58:31;;;;;;;53.55;24.60;;;3.20;99.90;;;;;;4968074;28;20197;-95
2022/01/13 04:01:21;;;;;;;58.30;28.08;;;3.30;99.90;;;;;;4970002;28;20170;-93
2022/01/13 04:03:47;;;;;;;63.50;27.52;;;;;;;;;;4968900;28;20209;-95
2022/01/13 04:06:16;;;;;;;72.13;32.53;;;3.10;99.90;;;;;;4973220;28;20186;-93
2022/01/13 04:08:43;;;;;;;71.03;32.30;;;;;;;;;;4974145;28;20221;-96
2022/01/13 04:11:15;;;;;;;79.88;31.80;;;3.10;99.90;;;;;;4963691;28;20402;-95
2022/01/13 04:14:00;;;;;;;76.05;31.35;;;3.00;99.90;;;;;;4946959;29;20190;-96
2022/01/13 04:16:33;;;;;;;71.88;32.35;;;3.30;99.90;;;;;;4958336;28;20178;-95
2022/01/13 04:19:06;;;;;;;73.28;32.10;;;3.20;99.90;;;;;;4961916;28;20682;-95
2022/01/13 04:21:33;;;;;;;69.45;29.77;;;3.30;99.90;;;;;;4965343;28;20185;-96
2022/01/13 04:24:00;;;;;;;76.50;31.48;;;;;;;;;;4945840;29;20194;-95
2022/01/13 04:26:30;;;;;;;70.88;32.67;;;3.30;99.90;;;;;;4958269;28;20193;-96
2022/01/13 04:29:19;;;;;;;62.95;28.42;;;3.30;99.90;;;;;;4965829;28;20245;-91
2022/01/13 04:31:51;;;;;;;80.32;34.38;;;3.30;99.90;;;;;;4973761;28;20188;-94
2022/01/13 04:34:25;;;;;;;74.32;30.15;;;3.20;99.90;;;;;;4967167;29;20185;-95
2022/01/13 04:36:58;;;;;;;80.63;34.70;;;3.10;99.90;;;;;;4965100;28;20651;-91
2022/01/13 04:39:25;;;;;;;79.53;33.03;;;3.10;99.90;;;;;;4946874;29;20637;-95
2022/01/13 04:41:53;;;;;;;73.15;32.42;;;;;;;;;;4964286;28;20237;-93
2022/01/13 04:44:21;;;;;;;65.47;28.40;;;3.10;99.90;;;;;;4964050;28;20186;-95
2022/01/13 04:46:48;;;;;;;75.60;31.98;;;;;;;;;;4973064;28;20189;-95
2022/01/13 04:49:18;;;;;;;77.88;35.65;;;3.10;99.90;;;;;;4976817;28;20252;-95
2022/01/13 04:51:46;;;;;;;79.25;34.60;;;;;;;;;;4989872;28;20257;-94
2022/01/13 04:54:12;;;;;;;80.03;36.60;;;;;;;;;;4972886;28;20194;-96
2022/01/13 04:57:05;;;;;;;71.15;32.78;;;;;;;;;;4973953;28;20244;-95
2022/01/13 04:59:30;;;;;;;77.22;31.88;;;2.80;99.90;;;;;;4990476;23;20291;-85
2022/01/13 05:01:56;;;;;;;49.65;23.98;;;2.70;99.90;;;;;;4988123;28;20185;-84
2022/01/13 05:04:22;;;;;;;70.53;29.57;;;2.80;99.90;;;;;;4968129;28;20716;-85
2022/01/13 05:06:47;;;;;;;73.73;33.00;;;2.40;99.90;;;;;;4970507;28;20232;-85
2022/01/13 05:09:13;;;;;;;74.80;31.90;;;2.90;99.90;;;;;;4985695;28;20449;-84
2022/01/13 05:11:39;;;;;;;72.80;34.40;;;;;;;;;;4987654;28;20423;-85
2022/01/13 05:14:05;;;;;;;83.15;36.50;;;2.60;99.90;;;;;;4986002;28;20192;-84
2022/01/13 05:16:47;;;;;;;81.83;32.43;;;2.60;99.90;;;;;;4969539;28;20181;-84
2022/01/13 05:19:17;;;;;;;78.97;31.05;;;2.50;99.90;;;;;;4968884;28;20193;-85
2022/01/13 05:22:15;;;;;;;96.72;38.13;;;2.60;99.90;;;;;;4987787;28;20192;-85
2022/01/13 05:24:31;;;;;;;81.43;37.33;;;2.50;99.90;;;;;;4975925;28;20204;-85
2022/01/13 05:26:57;;;;;;;68.77;31.40;;;;;;;;;;4987597;28;20185;-85
2022/01/13 05:29:23;;;;;;;71.70;32.20;;;2.60;99.90;;;;;;4968090;28;20216;-84
2022/01/13 05:31:50;;;;;;;81.37;34.77;;;2.70;99.90;;;;;;4987440;28;20428;-85
2022/01/13 05:34:17;;;;;;;79.95;36.63;;;2.70;99.90;;;;;;4985411;28;20645;-85
2022/01/13 05:36:45;;;;;;;80.75;31.05;;;2.60;99.90;;;;;;4987098;28;20670;-82
2022/01/13 05:39:11;;;;;;;64.13;31.15;;;2.10;99.90;;;;;;4968318;28;20193;-85
2022/01/13 05:41:38;;;;;;;74.32;32.40;;;2.50;99.90;;;;;;4987597;28;20593;-86
2022/01/13 05:44:04;;;;;;;69.43;36.20;;;2.60;99.90;;;;;;4968170;28;20193;-86
2022/01/13 05:46:29;;;;;;;61.00;28.30;;;2.60;99.90;;;;;;4970090;28;20635;-86
2022/01/13 05:48:56;;;;;;;65.37;32.03;;;2.60;99.90;;;;;;4983447;28;20484;-86
2022/01/13 05:51:22;;;;;;;62.97;33.45;;;2.70;99.90;;;;;;4970037;28;20184;-85
2022/01/13 05:53:53;;;;;;;73.50;34.42;;;2.40;99.90;;;;;;4969365;28;20267;-85
2022/01/13 05:56:19;;;;;;;61.78;29.10;;;2.60;99.90;;;;;;4976607;28;20173;-85
2022/01/13 05:58:44;;;;;;;68.23;31.60;;;2.50;99.90;;;;;;4968041;28;20298;-86
2022/01/13 06:01:10;;;;;;;81.50;36.40;;;;;;;;;;4987257;28;20178;-85
2022/01/13 06:03:36;;;;;;;87.60;35.65;;;2.60;99.90;;;;;;4985226;28;20614;-85
2022/01/13 06:06:02;;;;;;;82.10;38.40;;;2.50;99.90;;;;;;4987396;28;20201;-85
2022/01/13 06:08:27;;;;;;;92.17;36.53;;;2.50;99.90;;;;;;4967751;28;20252;-84
2022/01/13 06:10:53;;;;;;;89.17;36.10;;;2.40;99.90;;;;;;4987043;28;20224;-85
2022/01/13 06:13:19;;;;;;;87.63;37.90;;;2.70;99.90;;;;;;4967449;28;20570;-85
2022/01/13 06:15:44;;;;;;;82.07;32.03;;;2.40;99.90;;;;;;4987331;28;20209;-85
2022/01/13 06:18:25;;;;;;;89.57;36.43;;;2.40;99.90;;;;;;4985074;28;20372;-85
2022/01/13 06:20:51;;;;;;;89.88;40.22;;;2.50;99.90;;;;;;4282818;28;10001067;-85
2022/01/13 06:23:18;;;;;;;78.93;32.97;;;;;;;;;;4988002;28;20606;-84
2022/01/13 06:25:46;;;;;;;85.38;37.28;;;2.70;99.90;;;;;;4973936;28;20212;-85
2022/01/13 06:28:12;;;;;;;82.28;35.80;;;;;;;;;;4991692;28;20204;-85
2022/01/13 06:30:41;;;;;;;68.57;31.30;;;;;;;;;;4985080;28;20208;-85
2022/01/13 06:33:07;;;;;;;78.95;34.20;;;;;;;;;;4969481;28;20189;-82
2022/01/13 06:35:33;;;;;;;87.75;33.67;;;2.70;99.90;;;;;;4985200;28;20214;-81
2022/01/13 06:37:59;;;;;;;76.50;34.50;;;;;;;;;;4995025;28;20182;-83
2022/01/13 06:40:25;;;;;;;83.28;33.55;;;;;;;;;;4986566;28;20310;-85
2022/01/13 06:42:51;;;;;;;79.43;34.53;;;2.50;99.90;;;;;;4995225;28;20189;-85
2022/01/13 06:45:19;;;;;;;94.27;36.50;;;2.70;99.90;;;;;;4979465;28;20873;-86
2022/01/13 06:47:44;;;;;;;72.18;31.27;;;2.50;99.90;;;;;;4975117;28;20184;-86
2022/01/13 06:50:11;;;;;;;52.77;24.17;;;2.50;99.90;;;;;;4979445;28;20216;-83
2022/01/13 06:52:37;;;;;;;70.40;30.27;;;2.70;99.90;;;;;;4992102;28;20181;-84
2022/01/13 06:55:04;;;;;;;66.37;30.43;;;2.80;99.90;;;;;;4968445;28;20202;-85
2022/01/13 06:57:33;;;;;;;75.63;30.95;;;2.90;99.90;;;;;;4992357;28;20197;-85
2022/01/13 06:59:59;;;;;;;73.07;29.65;;;2.90;99.90;;;;;;4967138;28;20228;-83
2022/01/13 07:02:27;;;;;;;54.10;25.40;;;2.70;99.90;;;;;;4993429;28;20558;-85
2022/01/13 07:04:52;;;;;;;72.72;29.33;;;2.50;99.90;;;;;;4984430;28;20286;-84
2022/01/13 07:07:18;;;;;;;80.87;34.67;;;;;;;;;;4985244;28;20185;-86
2022/01/13 07:09:44;;;;;;;67.33;31.30;;;;;;;;;;4981533;28;20944;-83
2022/01/13 07:12:11;;;;;;;79.93;32.90;;;2.60;99.90;;;;;;5002086;28;20432;-83
2022/01/13 07:14:37;;;;;;;65.95;27.65;;;;;;;;;;4996206;28;20229;-85
2022/01/13 07:17:03;;;;;;;81.20;30.48;;;2.60;99.90;;;;;;5009244;28;20738;-82
2022/01/13 07:19:29;;;;;;;79.55;31.30;;;2.60;99.90;;;;;;4973705;28;20248;-86
2022/01/13 07:21:54;;;;;;;60.87;27.27;;;2.50;99.90;;;;;;4990785;28;20744;-84
2022/01/13 07:24:20;;;;;;;72.67;32.50;;;2.60;99.90;;;;;;4975905;28;20569;-84
2022/01/13 07:26:46;;;;;;;73.80;30.23;;;2.40;99.90;;;;;;4975005;28;20185;-84
2022/01/13 07:29:14;;;;;;;71.70;31.90;;;2.60;99.90;;;;;;4975919;23;20676;-84
2022/01/13 07:31:40;;;;;;;71.55;29.20;;;2.60;99.90;;;;;;4964848;28;20448;-86
2022/01/13 07:34:07;;;;;;;50.83;21.67;;;;;;;;;;4959394;28;20221;-88
2022/01/13 07:36:34;;;;;;;66.70;29.55;;;;;;;;;;4648789;28;10000577;-85
2022/01/13 07:39:00;;;;;;;68.63;29.17;;;2.00;99.90;;;;;;4941332;28;20426;-86
2022/01/13 07:41:26;;;;;;;53.90;23.10;;;;;;;;;;4988297;28;20209;-84
2022/01/13 07:43:55;;;;;;;72.28;29.92;;;2.40;99.90;;;;;;4980981;28;20554;-86
2022/01/13 07:46:23;;;;;;;71.70;31.33;;;2.60;99.90;;;;;;4984674;28;20185;-84
2022/01/13 07:48:49;;;;;;;89.78;33.90;;;2.50;99.90;;;;;;4981117;28;20228;-86
2022/01/13 07:51:15;;;;;;;77.07;33.13;;;;;;;;;;4960147;28;20257;-85
2022/01/13 07:53:42;;;;;;;63.15;25.52;;;2.60;99.90;;;;;;4967846;28;20178;-86
2022/01/13 07:56:08;;;;;;;47.72;20.52;;;2.70;99.90;;;;;;4964919;28;20244;-82
2022/01/13 07:58:44;;;;;;;36.05;18.13;;;3.60;99.90;;;;;;4987097;28;20173;-83
2022/01/13 08:01:13;;;;;;;68.35;26.45;;;2.60;99.90;;;;;;4984583;28;20666;-83
2022/01/13 08:03:38;;;;;;;77.68;32.25;;;2.60;99.90;;;;;;4952402;28;20292;-82
2022/01/13 08:06:04;;;;;;;79.87;30.03;;;2.30;99.90;;;;;;4986628;28;20181;-83
2022/01/13 08:08:35;;;;;;;68.38;28.23;;;2.10;99.90;;;;;;4953815;28;20210;-83
2022/01/13 08:11:04;;;;;;;71.38;29.45;;;2.50;99.90;;;;;;4974876;28;20197;-83
2022/01/13 08:16:36;;;;;;;61.97;28.88;;;2.40;99.90;;;;;;5188990;23;20240;-81
2022/01/13 08:21:49;;;;;;;69.22;31.13;;;4.20;99.90;;;;;;5004166;28;20235;-82
2022/01/13 08:24:15;;;;;;;62.90;26.50;;;2.60;99.90;;;;;;4990247;28;20200;-82
2022/01/13 08:26:40;;;;;;;80.80;29.53;;;2.40;99.90;;;;;;4972173;28;21024;-83
2022/01/13 08:29:06;;;;;;;56.60;25.50;;;2.70;99.90;;;;;;4989733;28;20497;-82
2022/01/13 08:31:32;;;;;;;31.97;17.63;;;2.50;99.90;;;;;;5005016;28;20650;-83
2022/01/13 08:34:07;;;;;;;71.45;28.73;;;2.70;99.90;;;;;;4988622;28;20180;-82
2022/01/13 08:36:33;;;;;;;39.88;19.95;;;3.10;99.90;;;;;;5005904;28;20619;-81
2022/01/13 08:39:09;;;;;;;69.27;29.37;;;2.80;99.90;;;;;;5007000;28;20253;-82
2022/01/13 08:41:34;;;;;;;65.10;28.65;;;2.40;99.90;;;;;;5065543;23;20519;-81
2022/01/13 08:44:00;;;;;;;73.80;28.17;;;;;;;;;;4980216;28;20637;-82
2022/01/13 08:46:26;;;;;;;69.82;29.88;;;2.80;99.90;;;;;;4988392;28;20258;-82
2022/01/13 08:48:55;;;;;;;75.53;32.23;;;2.80;99.90;;;;;;5009714;28;20672;-84
2022/01/13 08:51:20;;;;;;;88.35;35.47;;;2.80;99.90;;;;;;4976367;28;20223;-84
2022/01/13 08:53:49;;;;;;;90.10;36.43;;;2.60;99.90;;;;;;4990711;28;20205;-82
2022/01/13 08:56:16;;;;;;;76.60;35.80;;;2.90;99.90;;;;;;4972732;28;20213;-85
2022/01/13 08:58:42;;;;;;;79.32;32.90;;;2.90;99.90;;;;;;4974310;28;20207;-83
2022/01/13 09:01:08;;;;;;;61.42;28.27;;;3.00;99.90;;;;;;4971009;28;20196;-85
2022/01/13 09:03:35;;;;;;;78.32;33.33;;;2.90;99.90;;;;;;4974731;28;20184;-85
2022/01/13 09:06:01;;;;;;;73.97;29.98;;;3.10;99.90;;;;;;4625135;28;10000270;-84
2022/01/13 09:08:27;;;;;;;72.83;32.83;;;3.20;99.90;;;;;;4971699;28;20517;-85
2022/01/13 09:10:53;;;;;;;74.87;33.77;;;3.20;99.90;;;;;;4988762;28;20459;-86
2022/01/13 09:13:19;;;;;;;75.63;33.57;;;;;;;;;;4979527;28;20731;-86
2022/01/13 09:15:58;;;;;;;77.18;35.90;;;3.40;99.90;;;;;;4972732;28;20197;-86
2022/01/13 09:21:09;;;;;;;70.03;36.58;;;3.10;99.90;;;;;;4990460;28;20220;-84
2022/01/13 09:23:36;;;;;;;83.87;38.80;;;3.30;99.90;;;;;;4993986;28;20639;-84
2022/01/13 09:26:03;;;;;;;80.47;37.08;;;3.10;99.90;;;;;;4987150;28;20211;-83
2022/01/13 09:28:29;;;;;;;79.40;35.92;;;3.20;99.90;;;;;;4972751;28;20213;-83
2022/01/13 09:30:55;;;;;;;73.40;35.73;;;3.20;99.90;;;;;;4973982;28;20748;-81
2022/01/13 09:33:21;;;;;;;70.20;35.03;;;;;;;;;;4994276;28;20471;-84
2022/01/13 09:35:50;;;;;;;77.72;36.78;;;3.40;99.90;;;;;;4994234;28;20435;-80
2022/01/13 09:38:15;;;;;;;78.00;36.70;;;3.40;99.90;;;;;;4974800;28;20181;-83
2022/01/13 09:40:46;;;;;;;84.13;38.30;;;3.60;99.90;;;;;;4992373;28;20195;-85
2022/01/13 09:43:13;;;;;;;73.80;35.47;;;3.60;99.90;;;;;;4979476;28;20235;-84
2022/01/13 09:45:41;;;;;;;72.68;33.50;;;3.70;99.90;;;;;;4992538;28;20183;-86
2022/01/13 09:48:08;;;;;;;69.95;34.53;;;;;;;;;;4992536;28;20247;-82
2022/01/13 09:50:34;;;;;;;69.63;35.70;;;3.80;99.90;;;;;;4999131;28;20189;-83
2022/01/13 09:52:59;;;;;;;60.87;31.13;;;3.90;99.90;;;;;;5009596;28;20191;-82
2022/01/13 09:55:25;;;;;;;76.20;35.90;;;3.90;99.90;;;;;;5000937;28;20216;-83
2022/01/13 09:57:52;;;;;;;75.10;33.67;;;3.80;99.90;;;;;;5006681;28;20227;-83
2022/01/13 10:00:21;;;;;;;75.90;34.90;;;3.50;99.90;;;;;;4995701;28;20225;-82
2022/01/13 10:02:50;;;;;;;79.35;34.08;;;3.70;99.90;;;;;;4989283;28;20181;-85
2022/01/13 10:05:22;;;;;;;64.60;29.73;;;3.80;99.90;;;;;;5006227;28;20646;-85
2022/01/13 10:07:52;;;;;;;71.95;35.25;;;4.00;99.90;;;;;;4985986;28;20220;-85
2022/01/13 10:10:31;;;;;;;76.93;33.90;;;4.00;99.90;;;;;;4983054;28;20224;-86
2022/01/13 10:13:04;;;;;;;63.25;31.85;;;4.10;99.90;;;;;;5023532;28;20204;-83
2022/01/13 10:19:08;;;;;;;73.72;35.88;;;4.30;99.90;;;;;;5009542;28;20183;-85
2022/01/13 10:21:34;;;;;;;66.80;34.15;;;4.10;99.90;;;;;;5009001;28;20183;-86
2022/01/13 10:24:25;;;;;;;67.43;36.37;;;4.40;99.90;;;;;;5014145;28;20260;-84
2022/01/13 10:27:09;;;;;;;67.22;32.28;;;4.50;99.90;;;;;;5023667;28;20216;-87
2022/01/13 10:29:40;;;;;;;76.13;32.70;;;4.50;99.90;;;;;;4994560;28;20239;-85
2022/01/13 10:35:10;;;;;;;54.67;31.65;;;;;;;;;;4985186;28;20213;-86
2022/01/13 10:38:05;;;;;;;58.30;26.73;;;5.10;99.90;;;;;;4993688;28;20245;-83
2022/01/13 10:40:47;;;;;;;52.97;28.52;;;5.20;99.90;;;;;;5014330;28;20207;-87
2022/01/13 10:43:22;;;;;;;49.58;25.55;;;5.30;99.90;;;;;;4982386;28;20233;-86
2022/01/13 10:46:13;;;;;;;49.53;25.60;;;5.10;99.90;;;;;;4983519;28;20181;-83
2022/01/13 10:49:11;;;;;;;47.63;26.00;;;5.10;99.90;;;;;;5004311;28;20480;-86
2022/01/13 10:51:40;;;;;;;48.60;29.10;;;5.20;99.90;;;;;;5013214;28;20213;-80
2022/01/13 10:54:30;;;;;;;60.28;31.60;;;4.70;99.90;;;;;;5010489;28;20187;-83
2022/01/13 10:57:19;;;;;;;54.28;28.17;;;4.90;99.90;;;;;;4983931;28;20192;-85
2022/01/13 11:00:23;;;;;;;34.47;17.05;;;4.90;99.90;;;;;;5002070;28;20192;-85
2022/01/13 11:03:06;;;;;;;57.65;28.05;;;5.20;99.90;;;;;;4984194;28;20197;-85
2022/01/13 11:05:45;;;;;;;49.03;24.58;;;5.20;99.90;;;;;;4981380;28;20177;-85
2022/01/13 11:11:28;;;;;;;45.78;23.30;;;5.80;99.90;;;;;;5036029;28;20237;-85
2022/01/13 11:14:08;;;;;;;37.92;21.58;;;6.40;99.90;;;;;;5025124;28;20194;-83
2022/01/13 11:17:10;;;;;;;30.83;19.35;;;6.30;99.90;;;;;;5029459;28;20184;-86
2022/01/13 11:19:41;;;;;;;44.90;23.08;;;6.10;99.90;;;;;;5026214;28;20220;-82
2022/01/13 11:22:35;;;;;;;;;;;;;;;;;;;;;
2022/01/13 11:25:40;;;;;;;;;;;;;;;;;;;;;
2022/01/13 11:31:16;;;;;;;44.75;28.42;;;7.40;99.90;;;;;;5012385;28;20216;-80
2022/01/13 11:33:49;;;;;;;40.05;25.40;;;7.80;99.90;;;;;;5007588;28;20173;-86
2022/01/13 11:36:44;;;;;;;;;;;;;;;;;;;;;
2022/01/13 11:39:41;;;;;;;34.60;21.17;;;9.70;99.90;;;;;;5023269;28;20475;-88
2022/01/13 11:42:15;;;;;;;37.40;23.40;;;9.90;99.90;;;;;;4999287;28;20489;-81
2022/01/13 11:44:43;;;;;;;35.67;24.80;;;10.50;99.90;;;;;;5004392;28;20434;-85
2022/01/13 11:47:25;;;;;;;59.13;39.77;;;10.60;99.90;;;;;;4996878;28;20435;-86
2022/01/13 11:50:31;;;;;;;37.47;23.37;;;11.90;99.90;;;;;;5002299;28;20502;-81
2022/01/13 11:52:56;;;;;;;36.43;21.80;;;12.30;99.90;;;;;;5024759;28;20824;-86
2022/01/13 11:55:41;;;;;;;34.83;22.63;;;12.80;99.90;;;;;;5017754;28;20483;-86
2022/01/13 11:58:15;;;;;;;34.23;21.03;;;12.30;99.90;;;;;;4996703;28;20416;-85
2022/01/13 12:00:44;;;;;;;34.37;19.80;;;11.80;99.90;;;;;;5001828;28;20443;-84
2022/01/13 12:03:23;;;;;;;39.23;20.93;;;11.80;99.90;;;;;;4994022;28;20470;-82
2022/01/13 12:05:49;;;;;;;35.80;22.77;;;;;;;;;;5006265;28;20427;-84
2022/01/13 12:08:35;;;;;;;40.63;21.30;;;11.00;99.90;;;;;;4995786;28;20420;-84
2022/01/13 12:11:04;;;;;;;36.97;21.73;;;11.30;99.90;;;;;;5000463;28;20447;-82
2022/01/13 12:13:33;;;;;;;30.10;22.57;;;10.50;99.90;;;;;;4992903;28;20424;-84
2022/01/13 12:16:02;;;;;;;33.47;20.60;;;10.50;99.90;;;;;;4995198;28;20429;-79
2022/01/13 12:18:45;;;;;;;33.57;21.33;;;10.70;99.90;;;;;;5010446;28;20427;-86
2022/01/13 12:21:59;;;;;;;27.63;19.30;;;10.70;99.90;;;;;;4984593;28;20452;-87
2022/01/13 12:24:54;;;;;;;31.10;19.40;;;8.90;99.90;;;;;;4992887;28;20439;-85
2022/01/13 12:27:41;;;;;;;38.53;21.27;;;11.70;99.90;;;;;;5012525;28;20470;-86
2022/01/13 12:30:12;;;;;;;29.60;18.70;;;11.00;99.90;;;;;;4667044;28;10000550;-86
2022/01/13 12:32:52;;;;;;;33.63;19.87;;;11.80;99.90;;;;;;4993858;28;20188;-86
2022/01/13 12:35:42;;;;;;;33.77;21.57;;;11.90;99.90;;;;;;5000991;28;20511;-83
2022/01/13 12:38:23;;;;;;;32.50;21.13;;;12.00;99.90;;;;;;5001075;28;20420;-85
2022/01/13 12:41:05;;;;;;;38.13;20.23;;;11.80;99.90;;;;;;5001846;28;20427;-85
2022/01/13 12:46:19;;;;;;;30.60;20.83;;;11.30;99.90;;;;;;5012465;28;20428;-86
2022/01/13 12:48:53;;;;;;;40.37;27.70;;;13.50;99.90;;;;;;4988601;28;20619;-85
2022/01/13 12:51:24;;;;;;;83.67;64.00;;;13.00;99.90;;;;;;4999933;28;20467;-86
2022/01/13 12:53:50;;;;;;;31.13;19.80;;;13.10;99.90;;;;;;4999445;28;20984;-83
2022/01/13 12:56:19;;;;;;;30.83;20.13;;;14.00;99.90;;;;;;5007269;28;20422;-85
2022/01/13 12:58:51;;;;;;;38.23;21.20;;;11.60;99.90;;;;;;4999922;28;20786;-84
2022/01/13 13:01:23;;;;;;;36.83;21.07;;;12.40;99.90;;;;;;4995142;28;20462;-84
2022/01/13 13:04:12;;;;;;;37.43;23.00;;;14.70;99.90;;;;;;4990830;28;20490;-86
2022/01/13 13:07:08;;;;;;;31.63;21.60;;;12.50;99.90;;;;;;4978372;28;20428;-85
2022/01/13 13:09:33;;;;;;;38.67;21.50;;;12.60;99.90;;;;;;4996123;28;20468;-82
2022/01/13 13:12:04;;;;;;;37.23;21.37;;;13.00;99.90;;;;;;4988846;28;20444;-85
2022/01/13 13:17:45;;;;;;;36.73;22.70;;;12.50;99.90;;;;;;5017160;28;20435;-83
2022/01/13 13:20:26;;;;;;;32.67;19.83;;;11.90;99.90;;;;;;4990367;28;20419;-82
2022/01/13 13:22:58;;;;;;;42.90;22.70;;;11.90;99.90;;;;;;4995190;28;20403;-85
2022/01/13 13:25:35;;;;;;;34.50;22.50;;;12.00;99.90;;;;;;5007364;28;20431;-85
2022/01/13 13:28:31;;;;;;;36.27;21.57;;;12.20;99.90;;;;;;4999270;28;20521;-83
2022/01/13 13:30:59;;;;;;;34.80;21.73;;;12.20;99.90;;;;;;5004397;28;20448;-85
2022/01/13 13:33:40;;;;;;;37.90;23.90;;;13.80;99.90;;;;;;4989803;28;20505;-85
2022/01/13 13:36:10;;;;;;;40.60;26.27;;;12.50;99.90;;;;;;4997538;28;20449;-82
2022/01/13 13:38:53;;;;;;;46.23;26.40;;;14.60;99.90;;;;;;4990131;28;20431;-82
2022/01/13 13:41:57;;;;;;;45.67;21.80;;;11.90;99.90;;;;;;5001561;28;20448;-85
2022/01/13 13:44:28;;;;;;;42.27;24.30;;;11.50;99.90;;;;;;4996607;28;20467;-82
2022/01/13 13:46:55;;;;;;;39.33;22.38;;;10.90;99.90;;;;;;5009894;28;20438;-84
2022/01/13 13:49:24;;;;;;;39.53;21.13;;;10.90;99.90;;;;;;5016648;28;20315;-87
2022/01/13 13:51:57;;;;;;;43.00;21.60;;;10.50;99.90;;;;;;4998104;28;20933;-87
2022/01/13 13:54:28;;;;;;;34.87;22.67;;;11.80;99.90;;;;;;4998669;28;20432;-84
2022/01/13 13:57:04;;;;;;;40.07;20.60;;;10.40;99.90;;;;;;5004431;28;20436;-84
2022/01/13 13:59:44;;;;;;;32.53;20.80;;;10.40;99.90;;;;;;4997937;28;20445;-82
2022/01/13 14:02:14;;;;;;;33.37;20.30;;;10.10;99.90;;;;;;4999857;28;20855;-83
2022/01/13 14:05:04;;;;;;;44.77;22.67;;;9.90;99.90;;;;;;5019251;28;20428;-87